Terminal Aerodrome Forecast
Issued by NWS

Home | Current Version | Previous Version | Text Only | Print | Product List | Glossary On
Versions: 1 2 3 4 5 6 7 8 9 10 11 12 13 14 15
000
FTUS42 KTAE 220100 AAA
TAFABY
TAF AMD
KABY 220107Z 2201/2224 07007KT 2SM -DZ BR OVC004
     FM221400 07005KT 4SM -DZ BR OVC006
     FM221800 08005KT 5SM -DZ BR OVC010=

USA.gov is the U.S. government's official web portal to all federal, state and local government web resources and services.